Time;durP1;ratioP1;P1;durP2;ratioP2;P2;SDS_P1;SDS_P2;PMS_P1;PMS_P2;Temp;Humidity;BMP_temperature;BMP_pressure;BME280_temperature;BME280_humidity;BME280_pressure;Samples;Min_cycle;Max_cycle;Signal;HPM_P1;HPM_P2
2021/12/18 00:01:58;;;;;;;1.70;1.60;;;2.00;99.90;;;;;;5012002;28;20268;-62
2021/12/18 00:04:25;;;;;;;1.80;1.70;;;2.00;99.90;;;;;;5006557;28;20281;-61
2021/12/18 00:06:52;;;;;;;1.70;1.60;;;2.10;99.90;;;;;;5013166;28;20207;-61
2021/12/18 00:09:19;;;;;;;1.40;1.40;;;2.00;99.90;;;;;;5013286;28;20209;-63
2021/12/18 00:11:48;;;;;;;1.43;1.43;;;2.10;99.90;;;;;;5014990;28;20211;-61
2021/12/18 00:14:15;;;;;;;1.57;1.47;;;2.20;99.90;;;;;;5014275;28;20209;-61
2021/12/18 00:16:42;;;;;;;1.70;1.60;;;2.10;99.90;;;;;;5015842;28;20291;-61
2021/12/18 00:19:11;;;;;;;1.73;1.63;;;2.10;99.90;;;;;;5013299;28;20887;-60
2021/12/18 00:21:38;;;;;;;1.63;1.53;;;2.00;99.90;;;;;;5013936;28;20381;-61
2021/12/18 00:24:05;;;;;;;1.60;1.60;;;2.00;99.90;;;;;;5014994;28;20380;-62
2021/12/18 00:26:32;;;;;;;1.40;1.40;;;1.90;99.90;;;;;;5008529;28;20202;-60
2021/12/18 00:29:01;;;;;;;1.63;1.53;;;1.90;99.90;;;;;;5013163;28;20709;-59
2021/12/18 00:31:28;;;;;;;1.50;1.50;;;1.90;99.90;;;;;;5016781;28;20205;-60
2021/12/18 00:33:55;;;;;;;1.63;1.60;;;1.90;99.90;;;;;;5016005;28;20247;-61
2021/12/18 00:36:23;;;;;;;1.80;1.70;;;1.90;99.90;;;;;;5015326;28;20233;-61
2021/12/18 00:38:50;;;;;;;1.97;1.87;;;1.90;99.90;;;;;;5017858;28;20717;-60
2021/12/18 00:41:34;;;;;;;1.97;1.87;;;2.00;99.90;;;;;;5015736;28;20400;-60
2021/12/18 00:44:02;;;;;;;1.50;1.50;;;2.00;99.90;;;;;;5010879;28;20693;-61
2021/12/18 00:46:31;;;;;;;1.60;1.50;;;2.10;99.90;;;;;;5012634;28;20202;-62
2021/12/18 00:48:58;;;;;;;1.30;1.30;;;2.00;99.90;;;;;;5008708;28;20311;-60
2021/12/18 00:51:26;;;;;;;1.40;1.40;;;2.00;99.90;;;;;;5013286;28;20308;-60
2021/12/18 00:53:53;;;;;;;1.50;1.40;;;2.00;99.90;;;;;;5012820;28;20285;-60
2021/12/18 00:56:21;;;;;;;1.47;1.47;;;2.00;99.90;;;;;;5009886;28;20758;-62
2021/12/18 00:58:49;;;;;;;1.60;1.53;;;2.00;99.90;;;;;;5010621;28;20221;-61
2021/12/18 01:01:17;;;;;;;1.70;1.60;;;2.00;99.90;;;;;;5020370;28;20201;-62
2021/12/18 01:03:46;;;;;;;1.90;1.80;;;1.90;99.90;;;;;;5021024;28;20573;-63
2021/12/18 01:06:13;;;;;;;1.40;1.40;;;1.90;99.90;;;;;;5020020;28;20264;-60
2021/12/18 01:08:41;;;;;;;1.53;1.43;;;2.00;99.90;;;;;;5016350;28;20290;-61
2021/12/18 01:14:08;;;;;;;1.60;1.50;;;2.10;99.90;;;;;;5013229;28;20683;-63
2021/12/18 01:16:44;;;;;;;1.60;1.50;;;2.20;99.90;;;;;;5011197;28;20205;-61
2021/12/18 01:24:41;;;;;;;1.40;1.30;;;2.10;99.90;;;;;;5011759;28;20231;-62
2021/12/18 01:27:08;;;;;;;1.30;1.30;;;2.20;99.90;;;;;;5005362;28;20661;-60
2021/12/18 01:29:35;;;;;;;1.40;1.40;;;2.30;99.90;;;;;;5005190;28;20329;-61
2021/12/18 01:32:02;;;;;;;1.23;1.23;;;2.40;99.90;;;;;;5010113;28;20241;-60
2021/12/18 01:34:29;;;;;;;1.20;1.20;;;2.50;99.90;;;;;;5013560;28;20380;-61
2021/12/18 01:36:56;;;;;;;1.20;1.20;;;2.40;99.90;;;;;;5013477;28;20240;-60
2021/12/18 01:39:23;;;;;;;1.40;1.40;;;2.40;99.90;;;;;;5006308;28;20312;-62
2021/12/18 01:42:08;;;;;;;1.23;1.23;;;2.40;99.90;;;;;;5006388;28;20240;-62
2021/12/18 01:44:58;;;;;;;1.60;1.50;;;2.40;99.90;;;;;;5011789;28;20225;-62
2021/12/18 01:52:55;;;;;;;1.53;1.43;;;2.30;99.90;;;;;;5012467;28;20216;-61
2021/12/18 01:55:27;;;;;;;1.70;1.60;;;2.30;99.90;;;;;;5011849;28;20216;-60
2021/12/18 01:57:56;;;;;;;1.50;1.40;;;2.20;99.90;;;;;;5011391;28;20233;-60
2021/12/18 02:00:26;;;;;;;1.60;1.60;;;2.20;99.90;;;;;;5007501;28;20197;-62
2021/12/18 02:02:53;;;;;;;1.35;1.35;;;2.10;99.90;;;;;;5005995;28;20232;-62
2021/12/18 02:05:20;;;;;;;1.60;1.50;;;2.10;99.90;;;;;;5010197;28;20198;-62
2021/12/18 02:07:47;;;;;;;1.40;1.40;;;2.20;99.90;;;;;;5000346;28;20264;-61
2021/12/18 02:10:19;;;;;;;1.80;1.70;;;2.20;99.90;;;;;;5008303;28;20229;-61
2021/12/18 02:12:54;;;;;;;1.63;1.60;;;2.10;99.90;;;;;;5009643;28;20292;-62
2021/12/18 02:21:14;;;;;;;1.53;1.50;;;1.90;99.90;;;;;;4961194;29;20198;-61
2021/12/18 02:23:41;;;;;;;1.50;1.50;;;1.90;99.90;;;;;;4993267;28;20213;-60
2021/12/18 02:26:08;;;;;;;1.57;1.50;;;1.90;99.90;;;;;;5015744;28;20292;-62
2021/12/18 02:28:36;;;;;;;1.67;1.57;;;1.90;99.90;;;;;;5021776;28;20233;-62
2021/12/18 02:31:04;;;;;;;1.70;1.60;;;1.90;99.90;;;;;;5020825;28;20225;-62
2021/12/18 02:33:31;;;;;;;1.40;1.40;;;1.80;99.90;;;;;;5012228;28;20237;-61
2021/12/18 02:36:01;;;;;;;1.50;1.50;;;1.80;99.90;;;;;;5009577;28;20783;-60
2021/12/18 02:38:45;;;;;;;1.40;1.40;;;1.80;99.90;;;;;;5007366;28;20232;-60
2021/12/18 02:41:22;;;;;;;1.50;1.50;;;1.80;99.90;;;;;;5014811;28;20198;-63
2021/12/18 02:43:50;;;;;;;1.40;1.40;;;1.80;99.90;;;;;;5020340;28;20228;-60
2021/12/18 02:46:19;;;;;;;1.40;1.40;;;1.90;99.90;;;;;;5018780;28;20205;-62
2021/12/18 02:48:48;;;;;;;1.30;1.30;;;2.00;99.90;;;;;;5012068;28;20256;-61
2021/12/18 02:51:16;;;;;;;1.30;1.30;;;2.00;99.90;;;;;;5009838;28;20303;-61
2021/12/18 02:53:47;;;;;;;1.20;1.20;;;2.10;99.90;;;;;;5009406;28;20284;-61
2021/12/18 02:56:15;;;;;;;1.20;1.20;;;2.00;99.90;;;;;;5006226;28;20698;-60
2021/12/18 02:58:45;;;;;;;1.20;1.20;;;2.00;99.90;;;;;;5006002;28;20225;-60
2021/12/18 03:01:14;;;;;;;1.10;1.10;;;2.10;99.90;;;;;;5009976;28;20221;-59
2021/12/18 03:03:43;;;;;;;1.20;1.20;;;1.90;99.90;;;;;;5011726;28;20328;-61
2021/12/18 03:06:22;;;;;;;1.17;1.17;;;1.90;99.90;;;;;;5012401;28;20201;-60
2021/12/18 03:08:59;;;;;;;1.30;1.30;;;2.00;99.90;;;;;;5009369;28;20221;-60
2021/12/18 03:23:03;;;;;;;1.30;1.30;;;1.80;99.90;;;;;;5005166;28;20312;-62
2021/12/18 03:25:34;;;;;;;1.10;1.10;;;1.90;99.90;;;;;;5009944;28;20205;-61
2021/12/18 03:28:03;;;;;;;1.10;1.10;;;1.90;99.90;;;;;;5012177;28;20225;-61
2021/12/18 03:30:31;;;;;;;1.20;1.20;;;1.90;99.90;;;;;;5008646;28;20541;-61
2021/12/18 03:32:58;;;;;;;1.20;1.20;;;1.90;99.90;;;;;;5009523;28;20648;-61
2021/12/18 03:35:26;;;;;;;1.20;1.20;;;1.80;99.90;;;;;;5011196;28;20220;-62
2021/12/18 03:37:54;;;;;;;1.40;1.40;;;1.90;99.90;;;;;;5019862;28;20240;-61
2021/12/18 03:40:23;;;;;;;1.10;1.10;;;1.90;99.90;;;;;;5025224;28;20247;-61
2021/12/18 03:42:52;;;;;;;1.30;1.30;;;1.80;99.90;;;;;;5022330;28;20211;-62
2021/12/18 03:45:20;;;;;;;1.40;1.40;;;1.90;99.90;;;;;;5022031;28;20229;-62
2021/12/18 03:47:48;;;;;;;1.30;1.30;;;1.90;99.90;;;;;;5024568;28;20305;-60
2021/12/18 03:50:16;;;;;;;1.20;1.20;;;1.80;99.90;;;;;;5027551;28;20256;-61
2021/12/18 03:52:43;;;;;;;1.20;1.20;;;1.80;99.90;;;;;;5026215;28;20249;-61
2021/12/18 03:55:10;;;;;;;1.23;1.23;;;1.80;99.90;;;;;;5020147;28;20216;-59
2021/12/18 03:57:36;;;;;;;1.20;1.20;;;1.90;99.90;;;;;;5014576;28;20229;-62
2021/12/18 04:00:08;;;;;;;1.13;1.13;;;1.90;99.90;;;;;;5014642;28;20281;-60
2021/12/18 04:02:34;;;;;;;1.40;1.40;;;1.90;99.90;;;;;;5003455;28;20285;-62
2021/12/18 04:05:01;;;;;;;1.20;1.20;;;1.80;99.90;;;;;;5008897;28;20676;-60
2021/12/18 04:07:28;;;;;;;1.23;1.23;;;1.70;99.90;;;;;;5010289;28;20313;-60
2021/12/18 04:09:55;;;;;;;1.13;1.13;;;1.60;99.90;;;;;;5012402;28;20237;-62
2021/12/18 04:12:22;;;;;;;1.30;1.30;;;1.60;99.90;;;;;;5011468;28;20236;-61
2021/12/18 04:14:49;;;;;;;1.10;1.10;;;1.60;99.90;;;;;;5012285;28;20617;-61
2021/12/18 04:17:17;;;;;;;1.23;1.23;;;1.70;99.90;;;;;;5018557;28;20259;-64
2021/12/18 04:19:44;;;;;;;1.23;1.23;;;1.60;99.90;;;;;;5028127;28;20210;-61
2021/12/18 04:22:11;;;;;;;1.30;1.30;;;1.60;99.90;;;;;;5022308;28;20193;-62
2021/12/18 04:24:38;;;;;;;1.27;1.27;;;1.60;99.90;;;;;;5032710;28;20200;-64
2021/12/18 04:27:05;;;;;;;1.40;1.40;;;1.60;99.90;;;;;;5030695;28;20232;-60
2021/12/18 04:29:32;;;;;;;1.20;1.20;;;1.50;99.90;;;;;;5021524;28;20728;-60
2021/12/18 04:31:59;;;;;;;1.30;1.30;;;1.60;99.90;;;;;;5011310;28;20260;-60
2021/12/18 04:34:27;;;;;;;1.40;1.40;;;1.50;99.90;;;;;;5011174;28;20197;-61
2021/12/18 04:36:54;;;;;;;1.60;1.40;;;1.60;99.90;;;;;;5007760;28;20223;-62
2021/12/18 04:39:21;;;;;;;1.13;1.13;;;1.60;99.90;;;;;;5003431;28;20213;-62
2021/12/18 04:41:51;;;;;;;1.20;1.20;;;1.60;99.90;;;;;;5011063;28;20237;-63
2021/12/18 04:44:18;;;;;;;1.30;1.30;;;1.60;99.90;;;;;;5010581;28;20233;-61
2021/12/18 04:46:45;;;;;;;1.20;1.20;;;1.60;99.90;;;;;;5010459;28;20236;-62
2021/12/18 04:49:13;;;;;;;1.27;1.27;;;1.60;99.90;;;;;;5008186;28;20226;-62
2021/12/18 04:51:41;;;;;;;1.30;1.30;;;1.60;99.90;;;;;;5010320;28;20232;-60
2021/12/18 04:54:09;;;;;;;1.20;1.20;;;1.60;99.90;;;;;;5056751;22;20229;-65
2021/12/18 04:56:36;;;;;;;1.30;1.30;;;1.60;99.90;;;;;;5071055;28;20298;-65
2021/12/18 04:59:04;;;;;;;1.10;1.10;;;1.70;99.90;;;;;;5070755;28;20207;-66
2021/12/18 05:01:36;;;;;;;1.20;1.20;;;1.60;99.90;;;;;;5071971;28;20200;-63
2021/12/18 05:04:03;;;;;;;1.10;1.10;;;1.60;99.90;;;;;;5067411;28;20227;-65
2021/12/18 05:06:31;;;;;;;1.40;1.40;;;1.60;99.90;;;;;;5064526;28;20204;-64
2021/12/18 05:09:00;;;;;;;1.20;1.20;;;1.60;99.90;;;;;;5071299;28;20250;-66
2021/12/18 05:11:26;;;;;;;1.30;1.30;;;1.70;99.90;;;;;;5067417;28;20257;-65
2021/12/18 05:13:53;;;;;;;1.20;1.20;;;1.70;99.90;;;;;;5067857;28;20271;-64
2021/12/18 05:16:21;;;;;;;1.20;1.20;;;1.70;99.90;;;;;;5069453;28;20287;-66
2021/12/18 05:18:48;;;;;;;1.23;1.23;;;1.70;99.90;;;;;;5069252;28;20203;-64
2021/12/18 05:21:15;;;;;;;1.10;1.10;;;1.70;99.90;;;;;;5069424;28;20218;-65
2021/12/18 05:23:42;;;;;;;1.10;1.10;;;1.60;99.90;;;;;;5067848;28;20247;-66
2021/12/18 05:26:10;;;;;;;1.10;1.10;;;1.50;99.90;;;;;;5069877;28;20206;-66
2021/12/18 05:28:37;;;;;;;1.10;1.10;;;1.50;99.90;;;;;;5069183;28;20294;-64
2021/12/18 05:31:04;;;;;;;1.20;1.20;;;1.50;99.90;;;;;;5069061;28;20844;-63
2021/12/18 05:33:31;;;;;;;1.20;1.20;;;1.40;99.90;;;;;;5068582;28;20227;-65
2021/12/18 05:35:57;;;;;;;1.23;1.23;;;1.40;99.90;;;;;;5067306;28;20243;-66
2021/12/18 05:38:24;;;;;;;1.20;1.20;;;1.50;99.90;;;;;;5063183;28;20832;-64
2021/12/18 05:40:51;;;;;;;1.20;1.20;;;1.50;99.90;;;;;;5067696;28;20745;-66
2021/12/18 05:43:19;;;;;;;1.30;1.30;;;1.60;99.90;;;;;;5065918;28;20752;-65
2021/12/18 05:45:47;;;;;;;1.30;1.30;;;1.70;99.90;;;;;;5065973;28;20295;-64
2021/12/18 05:48:13;;;;;;;1.20;1.20;;;1.70;99.90;;;;;;5071561;28;20221;-65
2021/12/18 05:50:45;;;;;;;1.20;1.20;;;1.70;99.90;;;;;;5073164;28;20640;-65
2021/12/18 05:53:13;;;;;;;1.50;1.40;;;1.80;99.90;;;;;;5067678;28;20292;-64
2021/12/18 05:55:40;;;;;;;1.40;1.40;;;1.70;99.90;;;;;;5066643;28;20199;-63
2021/12/18 05:58:08;;;;;;;1.50;1.50;;;1.60;99.90;;;;;;5061812;28;20227;-66
2021/12/18 06:00:39;;;;;;;1.40;1.40;;;1.60;99.90;;;;;;5066956;28;20613;-65
2021/12/18 06:03:06;;;;;;;1.60;1.50;;;1.60;99.90;;;;;;5067934;28;20230;-65
2021/12/18 06:05:33;;;;;;;1.57;1.50;;;1.50;99.90;;;;;;5065151;28;20295;-64
2021/12/18 06:08:02;;;;;;;1.57;1.53;;;1.50;99.90;;;;;;5064056;28;20196;-64
2021/12/18 06:10:33;;;;;;;1.53;1.50;;;1.40;99.90;;;;;;5068833;28;20207;-66
2021/12/18 06:13:02;;;;;;;1.40;1.40;;;1.40;99.90;;;;;;5065600;28;20282;-65
2021/12/18 06:15:29;;;;;;;1.57;1.53;;;1.50;99.90;;;;;;5068096;28;20199;-65
2021/12/18 06:17:58;;;;;;;2.10;1.50;;;1.50;99.90;;;;;;5062906;28;20231;-61
2021/12/18 06:20:26;;;;;;;1.63;1.53;;;3.00;99.90;;;;;;5064782;28;20218;-66
2021/12/18 06:22:54;;;;;;;1.60;1.50;;;5.00;99.90;;;;;;5062173;28;20606;-66
2021/12/18 06:25:21;;;;;;;1.50;1.50;;;4.60;99.90;;;;;;5066169;28;20249;-67
2021/12/18 06:27:49;;;;;;;1.43;1.40;;;3.90;99.90;;;;;;5063722;28;20238;-65
2021/12/18 06:30:17;;;;;;;1.30;1.30;;;3.40;99.90;;;;;;5065676;28;20203;-64
2021/12/18 06:32:44;;;;;;;1.30;1.30;;;2.90;99.90;;;;;;5064862;28;20223;-65
2021/12/18 06:35:13;;;;;;;1.53;1.47;;;2.60;99.90;;;;;;5064957;28;20227;-64
2021/12/18 06:37:40;;;;;;;1.63;1.53;;;2.40;99.90;;;;;;5068329;28;20209;-65
2021/12/18 06:40:08;;;;;;;2.40;2.30;;;2.30;99.90;;;;;;5063060;28;20209;-64
2021/12/18 06:42:35;;;;;;;2.50;2.40;;;2.10;99.90;;;;;;5071201;28;20200;-66
2021/12/18 06:45:02;;;;;;;2.20;2.10;;;1.90;99.90;;;;;;5080762;28;20238;-65
2021/12/18 06:47:29;;;;;;;2.30;2.20;;;1.80;99.90;;;;;;5084165;28;20218;-65
2021/12/18 06:49:56;;;;;;;2.43;2.33;;;1.70;99.90;;;;;;5077739;28;20208;-64
2021/12/18 06:52:24;;;;;;;2.03;1.93;;;1.50;99.90;;;;;;5080866;28;20227;-65
2021/12/18 06:54:51;;;;;;;2.03;1.93;;;1.40;99.90;;;;;;5080011;28;20269;-64
2021/12/18 06:57:22;;;;;;;1.90;1.80;;;1.40;99.90;;;;;;5074009;28;20233;-64
2021/12/18 06:59:49;;;;;;;1.90;1.80;;;1.30;99.90;;;;;;5064270;28;20216;-64
2021/12/18 07:02:16;;;;;;;2.00;1.90;;;1.30;99.90;;;;;;5067072;28;20239;-63
2021/12/18 07:04:43;;;;;;;1.80;1.70;;;1.20;99.90;;;;;;5065970;28;20234;-66
2021/12/18 07:07:10;;;;;;;2.10;2.00;;;1.30;99.90;;;;;;5065263;28;20227;-66
2021/12/18 07:09:38;;;;;;;2.20;2.10;;;1.20;99.90;;;;;;5066910;28;20290;-65
2021/12/18 07:12:06;;;;;;;2.20;2.10;;;1.20;99.90;;;;;;5068777;28;20243;-66
2021/12/18 07:14:33;;;;;;;2.40;2.30;;;1.30;99.90;;;;;;5087133;28;20220;-65
2021/12/18 07:17:00;;;;;;;2.10;2.00;;;1.30;99.90;;;;;;5081930;28;20234;-65
2021/12/18 07:19:27;;;;;;;2.10;2.00;;;1.30;99.90;;;;;;5080913;28;20241;-65
2021/12/18 07:21:54;;;;;;;2.30;2.20;;;1.40;99.90;;;;;;5071818;28;20204;-65
2021/12/18 07:24:21;;;;;;;2.27;2.17;;;1.40;99.90;;;;;;5065340;28;20247;-65
2021/12/18 07:26:49;;;;;;;1.93;1.83;;;1.40;99.90;;;;;;5061933;28;20204;-65
2021/12/18 07:29:16;;;;;;;1.97;1.87;;;1.30;99.90;;;;;;5066531;28;20263;-66
2021/12/18 07:31:43;;;;;;;2.10;2.00;;;1.30;99.90;;;;;;5066024;28;20211;-65
2021/12/18 07:34:11;;;;;;;2.20;2.10;;;1.30;99.90;;;;;;5067432;28;20748;-64
2021/12/18 07:36:38;;;;;;;2.20;2.10;;;1.30;99.90;;;;;;5062945;28;20567;-64
2021/12/18 07:39:05;;;;;;;2.40;2.30;;;1.30;99.90;;;;;;5070282;28;20196;-64
2021/12/18 07:41:32;;;;;;;2.93;2.73;;;1.40;99.90;;;;;;5058660;28;20302;-65
2021/12/18 07:44:01;;;;;;;3.10;2.90;;;1.40;99.90;;;;;;5058780;28;20307;-64
2021/12/18 07:46:28;;;;;;;3.70;3.40;;;1.40;99.90;;;;;;5052346;28;20207;-65
2021/12/18 07:48:55;;;;;;;4.33;3.97;;;1.40;99.90;;;;;;5061007;28;20788;-65
2021/12/18 07:51:22;;;;;;;5.30;4.40;;;1.50;99.90;;;;;;5063545;28;20290;-66
2021/12/18 07:53:49;;;;;;;4.10;3.57;;;1.40;99.90;;;;;;5070586;28;20271;-64
2021/12/18 07:56:19;;;;;;;3.90;3.60;;;1.50;99.90;;;;;;5068837;28;20211;-65
2021/12/18 07:58:47;;;;;;;4.20;3.77;;;1.60;99.90;;;;;;5072719;28;20231;-65
2021/12/18 08:01:15;;;;;;;17.70;8.60;;;1.80;99.90;;;;;;5062917;28;20215;-66
2021/12/18 08:03:42;;;;;;;5.23;4.53;;;1.80;99.90;;;;;;5069352;28;20273;-65
2021/12/18 08:06:09;;;;;;;5.67;5.07;;;1.70;99.90;;;;;;5070953;28;20199;-64
2021/12/18 08:08:36;;;;;;;7.73;5.23;;;1.70;99.90;;;;;;5067783;28;20544;-66
2021/12/18 08:11:03;;;;;;;10.30;6.70;;;1.70;99.90;;;;;;5065272;28;20238;-64
2021/12/18 08:13:30;;;;;;;4.30;3.90;;;1.60;99.90;;;;;;5071290;28;20606;-66
2021/12/18 08:15:57;;;;;;;3.70;3.40;;;1.60;99.90;;;;;;5061509;28;20296;-65
2021/12/18 08:18:25;;;;;;;4.23;4.03;;;1.70;99.90;;;;;;5067975;28;20282;-65
2021/12/18 08:20:53;;;;;;;4.43;4.10;;;1.70;99.90;;;;;;5082268;28;20200;-65
2021/12/18 08:23:19;;;;;;;4.40;3.80;;;1.80;99.90;;;;;;5075280;28;20259;-64
2021/12/18 08:25:46;;;;;;;4.43;4.00;;;1.80;99.90;;;;;;5057630;28;20204;-65
2021/12/18 08:28:13;;;;;;;4.20;3.87;;;1.80;99.90;;;;;;5063181;28;20660;-65
2021/12/18 08:30:41;;;;;;;3.30;3.10;;;1.90;99.90;;;;;;5068330;28;20238;-66
2021/12/18 08:33:08;;;;;;;3.57;3.37;;;1.90;99.90;;;;;;5066748;28;20233;-66
2021/12/18 08:35:37;;;;;;;3.30;3.10;;;2.00;99.90;;;;;;5064922;28;20199;-65
2021/12/18 08:38:05;;;;;;;3.40;3.20;;;2.00;99.90;;;;;;5061575;28;20291;-65
2021/12/18 08:40:34;;;;;;;4.03;3.73;;;2.00;99.90;;;;;;5062458;28;20382;-66
2021/12/18 08:43:01;;;;;;;4.23;3.93;;;2.00;99.90;;;;;;5067596;28;20723;-66
2021/12/18 08:45:27;;;;;;;3.87;3.57;;;2.00;99.90;;;;;;5064895;28;20302;-66
2021/12/18 08:47:55;;;;;;;6.87;4.70;;;2.10;99.90;;;;;;5066634;28;20299;-66
2021/12/18 08:50:23;;;;;;;6.37;4.23;;;2.10;99.90;;;;;;5065644;28;20211;-64
2021/12/18 08:52:51;;;;;;;5.50;4.50;;;2.00;99.90;;;;;;5068365;28;20215;-66
2021/12/18 08:55:20;;;;;;;4.47;4.17;;;2.10;99.90;;;;;;5056058;28;20223;-65
2021/12/18 08:57:47;;;;;;;4.07;3.83;;;2.20;99.90;;;;;;5055289;28;20259;-64
2021/12/18 09:00:17;;;;;;;4.63;4.33;;;2.40;99.90;;;;;;5058065;28;20235;-65
2021/12/18 09:02:46;;;;;;;4.37;4.07;;;2.50;99.90;;;;;;5065005;28;20206;-67
2021/12/18 09:05:14;;;;;;;4.03;3.73;;;2.60;99.90;;;;;;5058213;28;20295;-65
2021/12/18 09:07:43;;;;;;;4.30;4.00;;;2.80;99.90;;;;;;5059463;28;20227;-66
2021/12/18 09:10:14;;;;;;;4.40;3.97;;;2.90;99.90;;;;;;5061566;28;20200;-66
2021/12/18 09:12:40;;;;;;;4.20;3.90;;;3.00;99.90;;;;;;5055508;28;20231;-67
2021/12/18 09:15:08;;;;;;;5.30;4.90;;;3.10;99.90;;;;;;5058792;28;20641;-66
2021/12/18 09:17:35;;;;;;;4.60;4.20;;;3.20;99.90;;;;;;5054700;28;20204;-66
2021/12/18 09:20:10;;;;;;;4.70;4.30;;;3.20;99.90;;;;;;5065157;28;20204;-67
2021/12/18 09:22:40;;;;;;;4.93;4.53;;;3.30;99.90;;;;;;5061212;28;20261;-66
2021/12/18 09:25:16;;;;;;;5.67;5.17;;;3.30;99.90;;;;;;5064081;28;20325;-66
2021/12/18 09:27:43;;;;;;;6.03;5.53;;;3.30;99.90;;;;;;5062892;28;20211;-67
2021/12/18 09:30:15;;;;;;;5.00;4.60;;;3.30;99.90;;;;;;5068436;28;20195;-66
2021/12/18 09:32:44;;;;;;;5.73;5.23;;;3.30;99.90;;;;;;5065355;28;20215;-67
2021/12/18 09:35:12;;;;;;;5.23;4.87;;;3.20;99.90;;;;;;5067280;28;20195;-65
2021/12/18 09:37:43;;;;;;;5.00;4.60;;;3.30;99.90;;;;;;5068743;28;20230;-65
2021/12/18 09:40:12;;;;;;;5.07;4.67;;;3.40;99.90;;;;;;5066423;28;20294;-66
2021/12/18 09:42:41;;;;;;;4.90;4.60;;;3.40;99.90;;;;;;5062803;28;20210;-66
2021/12/18 09:45:08;;;;;;;5.57;5.07;;;3.60;99.90;;;;;;5063977;28;20200;-66
2021/12/18 09:47:35;;;;;;;4.77;4.43;;;3.70;99.90;;;;;;5063809;28;20222;-66
2021/12/18 09:50:03;;;;;;;4.40;4.10;;;3.70;99.90;;;;;;5067565;28;20199;-66
2021/12/18 09:52:31;;;;;;;4.17;3.90;;;3.90;99.90;;;;;;5062877;28;20212;-65
2021/12/18 09:54:59;;;;;;;4.10;3.80;;;4.00;99.90;;;;;;5067092;28;20251;-65
2021/12/18 09:57:26;;;;;;;3.90;3.70;;;4.20;99.90;;;;;;5060466;28;20358;-66
2021/12/18 09:59:55;;;;;;;3.80;3.60;;;4.30;99.90;;;;;;5057473;28;20258;-64
2021/12/18 10:02:22;;;;;;;4.20;3.90;;;4.50;99.90;;;;;;5057464;28;20200;-64
2021/12/18 10:04:49;;;;;;;3.97;3.67;;;4.50;99.90;;;;;;5056052;28;20219;-66
2021/12/18 10:07:20;;;;;;;3.50;3.30;;;4.50;99.90;;;;;;5061634;28;20227;-66
2021/12/18 10:09:48;;;;;;;3.30;3.10;;;4.50;99.90;;;;;;5062636;28;20210;-67
2021/12/18 10:12:18;;;;;;;3.33;3.13;;;4.60;99.90;;;;;;5058514;28;20243;-65
2021/12/18 10:14:48;;;;;;;3.43;3.20;;;4.50;99.90;;;;;;5041130;28;20318;-64
2021/12/18 10:17:29;;;;;;;3.00;2.80;;;4.50;99.90;;;;;;5038776;28;20628;-65
2021/12/18 10:20:16;;;;;;;3.30;3.10;;;4.60;99.90;;;;;;5046103;28;20235;-66
2021/12/18 10:22:45;;;;;;;3.50;3.20;;;4.70;99.90;;;;;;5045468;28;20222;-63
2021/12/18 10:25:14;;;;;;;3.60;3.40;;;4.60;99.90;;;;;;5054598;28;20614;-67
2021/12/18 10:27:43;;;;;;;3.23;3.03;;;4.60;99.90;;;;;;5053901;28;20734;-66
2021/12/18 10:30:19;;;;;;;3.40;3.20;;;4.60;99.90;;;;;;5066514;28;20230;-66
2021/12/18 10:33:02;;;;;;;3.70;3.50;;;4.70;99.90;;;;;;5068054;28;20265;-67
2021/12/18 10:35:45;;;;;;;3.60;3.40;;;4.70;99.90;;;;;;5050087;28;21364;-66
2021/12/18 10:38:36;;;;;;;3.33;3.13;;;4.60;99.90;;;;;;5038323;28;20291;-64
2021/12/18 10:41:18;;;;;;;3.33;3.13;;;4.50;99.90;;;;;;5051041;28;20284;-67
2021/12/18 10:43:55;;;;;;;3.57;3.37;;;4.50;99.90;;;;;;5056775;28;20251;-66
2021/12/18 10:46:22;;;;;;;4.03;3.80;;;4.50;99.90;;;;;;5067373;28;20203;-65
2021/12/18 10:49:00;;;;;;;3.97;3.77;;;4.50;99.90;;;;;;5071882;28;20238;-66
2021/12/18 10:51:29;;;;;;;4.60;4.30;;;4.50;99.90;;;;;;5079479;28;20211;-64
2021/12/18 10:54:01;;;;;;;3.80;3.60;;;4.60;99.90;;;;;;5064536;28;20686;-65
2021/12/18 10:56:37;;;;;;;3.70;3.50;;;4.70;99.90;;;;;;5065799;28;20195;-65
2021/12/18 10:59:06;;;;;;;3.80;3.60;;;4.70;99.90;;;;;;5061561;28;20294;-65
2021/12/18 11:01:36;;;;;;;3.50;3.30;;;4.80;99.90;;;;;;5056193;28;20203;-64
2021/12/18 11:04:05;;;;;;;3.50;3.30;;;4.80;99.90;;;;;;5060181;28;20255;-65
2021/12/18 11:06:33;;;;;;;3.20;3.10;;;4.90;99.90;;;;;;5054593;28;20200;-66
2021/12/18 11:09:09;;;;;;;3.73;3.53;;;5.00;99.90;;;;;;5065884;28;20200;-64
2021/12/18 11:14:36;;;;;;;3.70;3.50;;;5.20;99.90;;;;;;5067991;28;20223;-65
2021/12/18 11:17:05;;;;;;;3.53;3.33;;;5.30;99.90;;;;;;5063515;28;20204;-64
2021/12/18 11:19:35;;;;;;;3.40;3.20;;;5.40;99.90;;;;;;5066871;28;20235;-63
2021/12/18 11:22:04;;;;;;;3.97;3.77;;;5.50;99.90;;;;;;5071960;28;20200;-66
2021/12/18 11:24:34;;;;;;;3.57;3.37;;;5.60;99.90;;;;;;5067641;28;20274;-66
2021/12/18 11:27:04;;;;;;;3.60;3.40;;;5.70;99.90;;;;;;5063816;28;20254;-66
2021/12/18 11:29:40;;;;;;;3.40;3.20;;;5.80;99.90;;;;;;5077227;28;20199;-66
2021/12/18 11:32:10;;;;;;;3.67;3.47;;;5.90;99.90;;;;;;5067538;28;20232;-67
2021/12/18 11:34:40;;;;;;;3.60;3.40;;;6.00;99.90;;;;;;5068465;28;20231;-67
2021/12/18 11:37:08;;;;;;;3.80;3.60;;;6.10;99.90;;;;;;5066474;28;20246;-65
2021/12/18 11:39:37;;;;;;;3.20;3.03;;;6.20;99.90;;;;;;5065597;28;20249;-66
2021/12/18 11:42:05;;;;;;;3.27;3.07;;;6.20;99.90;;;;;;5057386;28;20254;-65
2021/12/18 11:44:35;;;;;;;3.60;3.40;;;6.30;99.90;;;;;;5064249;28;20255;-65
2021/12/18 11:47:25;;;;;;;3.30;3.13;;;6.30;99.90;;;;;;5054011;28;20575;-65
2021/12/18 11:49:56;;;;;;;3.37;3.17;;;6.40;99.90;;;;;;5057992;28;20232;-66
2021/12/18 11:52:23;;;;;;;3.80;3.60;;;6.40;99.90;;;;;;5061364;28;20207;-66
2021/12/18 11:54:51;;;;;;;3.60;3.40;;;6.40;99.90;;;;;;5067030;28;20234;-66
2021/12/18 11:57:48;;;;;;;3.80;3.60;;;6.30;99.90;;;;;;5070198;28;20757;-65
2021/12/18 12:00:45;;;;;;;3.80;3.60;;;6.20;99.90;;;;;;5026028;28;20264;-64
2021/12/18 12:03:24;;;;;;;3.50;3.30;;;6.10;99.90;;;;;;5059132;28;20728;-66
2021/12/18 12:05:57;;;;;;;3.57;3.37;;;6.10;99.90;;;;;;5064297;28;20203;-65
2021/12/18 12:08:32;;;;;;;3.63;3.43;;;6.00;99.90;;;;;;5065912;28;20238;-65
2021/12/18 12:11:21;;;;;;;3.70;3.50;;;6.10;99.90;;;;;;5066824;28;20192;-65
2021/12/18 12:14:08;;;;;;;3.80;3.60;;;6.00;99.90;;;;;;5063557;28;20223;-66
2021/12/18 12:17:11;;;;;;;3.27;3.07;;;6.00;99.90;;;;;;5068514;28;20203;-65
2021/12/18 12:19:56;;;;;;;3.10;3.00;;;6.10;99.90;;;;;;5057792;28;20245;-66
2021/12/18 12:22:48;;;;;;;3.40;3.20;;;6.10;99.90;;;;;;5054278;28;20239;-66
2021/12/18 12:25:18;;;;;;;3.50;3.30;;;6.10;99.90;;;;;;5061050;28;20267;-65
2021/12/18 12:28:00;;;;;;;2.93;2.83;;;6.10;99.90;;;;;;5086208;28;20724;-65
2021/12/18 12:30:30;;;;;;;3.50;3.30;;;6.20;99.90;;;;;;5060038;28;20745;-65
2021/12/18 12:32:59;;;;;;;3.43;3.23;;;6.20;99.90;;;;;;5053147;28;20251;-67
2021/12/18 12:35:27;;;;;;;3.37;3.17;;;6.10;99.90;;;;;;5045788;28;20284;-66
2021/12/18 12:37:56;;;;;;;2.97;2.77;;;6.20;99.90;;;;;;5050288;28;20205;-64
2021/12/18 12:40:35;;;;;;;3.20;3.10;;;6.20;99.90;;;;;;5050748;28;20200;-65
2021/12/18 12:43:18;;;;;;;3.30;3.10;;;6.20;99.90;;;;;;5066499;28;20264;-64
2021/12/18 12:45:48;;;;;;;2.80;2.70;;;6.20;99.90;;;;;;5053007;28;20206;-66
2021/12/18 12:48:16;;;;;;;2.70;2.60;;;6.20;99.90;;;;;;5067960;28;20221;-66
2021/12/18 12:50:43;;;;;;;2.60;2.50;;;6.30;99.90;;;;;;5062620;28;20195;-66
2021/12/18 12:53:12;;;;;;;2.70;2.60;;;6.20;99.90;;;;;;5063152;28;20292;-65
2021/12/18 12:55:42;;;;;;;2.90;2.73;;;6.30;99.90;;;;;;5042327;22;20237;-61
2021/12/18 12:58:18;;;;;;;2.43;2.33;;;6.40;99.90;;;;;;5028171;28;20292;-65
2021/12/18 13:00:58;;;;;;;2.50;2.40;;;6.40;99.90;;;;;;5032263;28;20223;-62
2021/12/18 13:03:34;;;;;;;2.80;2.70;;;6.50;99.90;;;;;;5033116;28;20206;-61
2021/12/18 13:06:08;;;;;;;2.67;2.57;;;6.60;99.90;;;;;;5013407;28;20627;-62
2021/12/18 13:08:38;;;;;;;2.60;2.50;;;6.50;99.90;;;;;;5015130;28;20221;-62
2021/12/18 13:11:06;;;;;;;2.53;2.43;;;6.60;99.90;;;;;;5007457;28;20209;-60
2021/12/18 13:13:35;;;;;;;2.73;2.63;;;6.60;99.90;;;;;;5007282;28;20252;-61
2021/12/18 13:16:10;;;;;;;2.50;2.40;;;6.60;99.90;;;;;;5008195;28;20201;-61
2021/12/18 13:18:39;;;;;;;2.90;2.50;;;6.70;99.90;;;;;;5012724;28;20206;-62
2021/12/18 13:21:09;;;;;;;2.53;2.43;;;6.70;99.90;;;;;;5008086;28;20284;-62
2021/12/18 13:23:56;;;;;;;2.67;2.50;;;6.70;99.90;;;;;;5003165;28;20201;-62
2021/12/18 13:26:27;;;;;;;2.50;2.40;;;6.70;99.90;;;;;;5009111;28;20212;-62
2021/12/18 13:29:07;;;;;;;2.90;2.80;;;6.80;99.90;;;;;;5010082;28;20201;-62
2021/12/18 13:31:39;;;;;;;2.63;2.53;;;6.80;99.90;;;;;;5011713;28;20546;-61
2021/12/18 13:34:08;;;;;;;2.80;2.70;;;6.80;99.90;;;;;;5012393;28;20325;-62
2021/12/18 13:36:48;;;;;;;2.70;2.60;;;6.80;99.90;;;;;;5012438;28;20668;-62
2021/12/18 13:39:19;;;;;;;2.43;2.33;;;6.80;99.90;;;;;;4993060;28;20190;-62
2021/12/18 13:42:05;;;;;;;2.90;2.80;;;6.70;99.90;;;;;;4991783;28;20619;-61
2021/12/18 13:44:41;;;;;;;2.40;2.30;;;6.70;99.90;;;;;;4992102;28;20276;-60
2021/12/18 13:47:23;;;;;;;2.70;2.60;;;6.70;99.90;;;;;;4992686;28;20214;-60